Aviation Digital Data Service (ADDS)

Output produced by TAFs form (0404 UTC 24 May 2017)
found at http://aviationweather.gov/adds/tafs/
 
KAEG 232331Z 2400/2424 31018G25KT P6SM SKC 
     FM240230 34010KT P6SM SKC 
     FM240800 VRB04KT P6SM SKC 
     FM242000 28018G25KT P6SM SKC